sensor_id;sensor_type;location;lat;lon;timestamp;P1;durP1;ratioP1;P2;durP2;ratioP2
53263;SDS011;39153;52.680;6.172;2023-02-15T00:00:20;48.65;;;26.08;;
53263;SDS011;39153;52.680;6.172;2023-02-15T00:02:46;46.55;;;25.77;;
53263;SDS011;39153;52.680;6.172;2023-02-15T00:05:12;50.85;;;26.98;;
53263;SDS011;39153;52.680;6.172;2023-02-15T00:07:37;48.15;;;25.80;;
53263;SDS011;39153;52.680;6.172;2023-02-15T00:10:03;47.67;;;25.35;;
53263;SDS011;39153;52.680;6.172;2023-02-15T00:12:30;47.10;;;25.38;;
53263;SDS011;39153;52.680;6.172;2023-02-15T00:14:55;50.28;;;25.98;;
53263;SDS011;39153;52.680;6.172;2023-02-15T00:17:21;43.65;;;24.58;;
53263;SDS011;39153;52.680;6.172;2023-02-15T00:19:47;49.85;;;24.55;;
53263;SDS011;39153;52.680;6.172;2023-02-15T00:22:12;46.15;;;25.17;;
53263;SDS011;39153;52.680;6.172;2023-02-15T00:24:38;48.03;;;25.27;;
53263;SDS011;39153;52.680;6.172;2023-02-15T00:27:04;44.78;;;25.48;;
53263;SDS011;39153;52.680;6.172;2023-02-15T00:29:29;46.65;;;25.77;;
53263;SDS011;39153;52.680;6.172;2023-02-15T00:31:55;47.88;;;26.10;;
53263;SDS011;39153;52.680;6.172;2023-02-15T00:34:22;51.65;;;26.65;;
53263;SDS011;39153;52.680;6.172;2023-02-15T00:36:49;48.58;;;25.58;;
53263;SDS011;39153;52.680;6.172;2023-02-15T00:39:16;43.58;;;23.55;;
53263;SDS011;39153;52.680;6.172;2023-02-15T00:41:42;44.15;;;23.92;;
53263;SDS011;39153;52.680;6.172;2023-02-15T00:44:08;46.97;;;24.63;;
53263;SDS011;39153;52.680;6.172;2023-02-15T00:46:34;46.70;;;24.25;;
53263;SDS011;39153;52.680;6.172;2023-02-15T00:49:00;44.47;;;24.83;;
53263;SDS011;39153;52.680;6.172;2023-02-15T00:51:26;49.00;;;25.23;;
53263;SDS011;39153;52.680;6.172;2023-02-15T00:53:52;43.72;;;23.67;;
53263;SDS011;39153;52.680;6.172;2023-02-15T00:56:18;43.10;;;23.77;;
53263;SDS011;39153;52.680;6.172;2023-02-15T00:58:43;46.50;;;24.13;;
53263;SDS011;39153;52.680;6.172;2023-02-15T01:01:10;40.28;;;23.70;;
53263;SDS011;39153;52.680;6.172;2023-02-15T01:03:38;38.58;;;21.90;;
53263;SDS011;39153;52.680;6.172;2023-02-15T01:06:06;41.58;;;22.33;;
53263;SDS011;39153;52.680;6.172;2023-02-15T01:08:32;40.83;;;22.73;;
53263;SDS011;39153;52.680;6.172;2023-02-15T01:11:02;40.40;;;21.38;;
53263;SDS011;39153;52.680;6.172;2023-02-15T01:13:28;38.55;;;21.90;;
53263;SDS011;39153;52.680;6.172;2023-02-15T01:15:54;35.83;;;21.63;;
53263;SDS011;39153;52.680;6.172;2023-02-15T01:18:21;42.85;;;23.30;;
53263;SDS011;39153;52.680;6.172;2023-02-15T01:20:47;38.38;;;22.60;;
53263;SDS011;39153;52.680;6.172;2023-02-15T01:23:13;42.08;;;22.67;;
53263;SDS011;39153;52.680;6.172;2023-02-15T01:25:39;38.10;;;22.67;;
53263;SDS011;39153;52.680;6.172;2023-02-15T01:28:04;39.05;;;22.20;;
53263;SDS011;39153;52.680;6.172;2023-02-15T01:30:30;37.47;;;22.48;;
53263;SDS011;39153;52.680;6.172;2023-02-15T01:32:57;40.53;;;22.67;;
53263;SDS011;39153;52.680;6.172;2023-02-15T01:35:23;39.70;;;22.88;;
53263;SDS011;39153;52.680;6.172;2023-02-15T01:37:49;40.00;;;21.58;;
53263;SDS011;39153;52.680;6.172;2023-02-15T01:40:15;42.63;;;23.33;;
53263;SDS011;39153;52.680;6.172;2023-02-15T01:42:42;42.30;;;22.80;;
53263;SDS011;39153;52.680;6.172;2023-02-15T01:47:52;47.20;;;23.25;;
53263;SDS011;39153;52.680;6.172;2023-02-15T01:50:30;45.40;;;23.35;;
53263;SDS011;39153;52.680;6.172;2023-02-15T01:55:31;42.70;;;23.88;;
53263;SDS011;39153;52.680;6.172;2023-02-15T01:58:01;44.75;;;22.33;;
53263;SDS011;39153;52.680;6.172;2023-02-15T02:00:27;44.28;;;23.70;;
53263;SDS011;39153;52.680;6.172;2023-02-15T02:02:54;42.08;;;23.70;;
53263;SDS011;39153;52.680;6.172;2023-02-15T02:05:21;40.90;;;22.85;;
53263;SDS011;39153;52.680;6.172;2023-02-15T02:07:48;43.15;;;23.63;;
53263;SDS011;39153;52.680;6.172;2023-02-15T02:10:17;43.67;;;23.83;;
53263;SDS011;39153;52.680;6.172;2023-02-15T02:12:45;42.67;;;22.50;;
53263;SDS011;39153;52.680;6.172;2023-02-15T02:15:12;40.50;;;22.75;;
53263;SDS011;39153;52.680;6.172;2023-02-15T02:29:40;42.13;;;20.73;;
53263;SDS011;39153;52.680;6.172;2023-02-15T02:35:16;38.88;;;22.30;;
53263;SDS011;39153;52.680;6.172;2023-02-15T02:38:08;37.88;;;20.95;;
53263;SDS011;39153;52.680;6.172;2023-02-15T02:41:03;37.75;;;21.13;;
53263;SDS011;39153;52.680;6.172;2023-02-15T02:43:51;39.97;;;21.27;;
53263;SDS011;39153;52.680;6.172;2023-02-15T02:46:35;34.92;;;20.42;;
53263;SDS011;39153;52.680;6.172;2023-02-15T02:49:07;41.50;;;21.92;;
53263;SDS011;39153;52.680;6.172;2023-02-15T02:51:33;38.65;;;21.15;;
53263;SDS011;39153;52.680;6.172;2023-02-15T02:53:59;39.00;;;21.85;;
53263;SDS011;39153;52.680;6.172;2023-02-15T02:56:32;38.42;;;21.63;;
53263;SDS011;39153;52.680;6.172;2023-02-15T02:59:05;42.72;;;23.13;;
53263;SDS011;39153;52.680;6.172;2023-02-15T03:01:33;45.55;;;24.13;;
53263;SDS011;39153;52.680;6.172;2023-02-15T03:04:05;47.03;;;23.40;;
53263;SDS011;39153;52.680;6.172;2023-02-15T03:06:39;43.60;;;24.63;;
53263;SDS011;39153;52.680;6.172;2023-02-15T03:09:23;44.28;;;22.85;;
53263;SDS011;39153;52.680;6.172;2023-02-15T03:12:06;44.47;;;24.30;;
53263;SDS011;39153;52.680;6.172;2023-02-15T03:14:38;46.40;;;24.88;;
53263;SDS011;39153;52.680;6.172;2023-02-15T03:17:06;46.80;;;25.17;;
53263;SDS011;39153;52.680;6.172;2023-02-15T03:19:34;47.35;;;24.52;;
53263;SDS011;39153;52.680;6.172;2023-02-15T03:22:10;48.83;;;25.58;;
53263;SDS011;39153;52.680;6.172;2023-02-15T03:27:33;57.78;;;28.10;;
53263;SDS011;39153;52.680;6.172;2023-02-15T03:30:06;53.65;;;27.52;;
53263;SDS011;39153;52.680;6.172;2023-02-15T03:32:34;54.58;;;28.42;;
53263;SDS011;39153;52.680;6.172;2023-02-15T03:35:00;60.70;;;30.23;;
53263;SDS011;39153;52.680;6.172;2023-02-15T03:40:08;57.10;;;28.75;;
53263;SDS011;39153;52.680;6.172;2023-02-15T03:45:56;59.30;;;27.63;;
53263;SDS011;39153;52.680;6.172;2023-02-15T03:48:30;58.10;;;27.80;;
53263;SDS011;39153;52.680;6.172;2023-02-15T03:51:14;56.97;;;29.08;;
53263;SDS011;39153;52.680;6.172;2023-02-15T03:53:58;57.80;;;26.88;;
53263;SDS011;39153;52.680;6.172;2023-02-15T03:56:29;56.10;;;26.83;;
53263;SDS011;39153;52.680;6.172;2023-02-15T03:58:55;58.20;;;28.33;;
53263;SDS011;39153;52.680;6.172;2023-02-15T04:01:40;55.05;;;25.80;;
53263;SDS011;39153;52.680;6.172;2023-02-15T04:04:24;56.38;;;27.33;;
53263;SDS011;39153;52.680;6.172;2023-02-15T04:06:57;60.90;;;27.20;;
53263;SDS011;39153;52.680;6.172;2023-02-15T04:09:23;51.35;;;26.05;;
53263;SDS011;39153;52.680;6.172;2023-02-15T04:12:21;64.20;;;28.42;;
53263;SDS011;39153;52.680;6.172;2023-02-15T04:14:47;67.07;;;30.95;;
53263;SDS011;39153;52.680;6.172;2023-02-15T04:19:57;63.13;;;28.83;;
53263;SDS011;39153;52.680;6.172;2023-02-15T04:22:41;57.90;;;28.30;;
53263;SDS011;39153;52.680;6.172;2023-02-15T04:25:26;61.90;;;29.13;;
53263;SDS011;39153;52.680;6.172;2023-02-15T04:27:53;60.75;;;29.15;;
53263;SDS011;39153;52.680;6.172;2023-02-15T04:30:21;63.50;;;29.55;;
53263;SDS011;39153;52.680;6.172;2023-02-15T04:32:49;63.55;;;30.05;;
53263;SDS011;39153;52.680;6.172;2023-02-15T04:35:15;66.88;;;30.92;;
53263;SDS011;39153;52.680;6.172;2023-02-15T04:37:41;61.67;;;29.48;;
53263;SDS011;39153;52.680;6.172;2023-02-15T04:40:08;64.82;;;31.35;;
53263;SDS011;39153;52.680;6.172;2023-02-15T04:42:36;62.38;;;29.70;;
53263;SDS011;39153;52.680;6.172;2023-02-15T04:45:02;63.97;;;28.98;;
53263;SDS011;39153;52.680;6.172;2023-02-15T04:47:28;67.60;;;30.83;;
53263;SDS011;39153;52.680;6.172;2023-02-15T04:49:53;62.30;;;29.65;;
53263;SDS011;39153;52.680;6.172;2023-02-15T04:52:19;64.45;;;30.50;;
53263;SDS011;39153;52.680;6.172;2023-02-15T04:54:45;62.50;;;29.65;;
53263;SDS011;39153;52.680;6.172;2023-02-15T04:57:11;61.28;;;29.70;;
53263;SDS011;39153;52.680;6.172;2023-02-15T04:59:37;57.17;;;28.48;;
53263;SDS011;39153;52.680;6.172;2023-02-15T05:02:03;62.72;;;29.80;;
53263;SDS011;39153;52.680;6.172;2023-02-15T05:04:28;67.65;;;30.50;;
53263;SDS011;39153;52.680;6.172;2023-02-15T05:06:54;62.40;;;30.65;;
53263;SDS011;39153;52.680;6.172;2023-02-15T05:09:20;68.40;;;30.08;;
53263;SDS011;39153;52.680;6.172;2023-02-15T05:11:46;65.97;;;30.48;;
53263;SDS011;39153;52.680;6.172;2023-02-15T05:14:11;62.70;;;29.00;;
53263;SDS011;39153;52.680;6.172;2023-02-15T05:16:37;69.63;;;30.75;;
53263;SDS011;39153;52.680;6.172;2023-02-15T05:19:03;60.65;;;29.55;;
53263;SDS011;39153;52.680;6.172;2023-02-15T05:21:29;58.17;;;27.35;;
53263;SDS011;39153;52.680;6.172;2023-02-15T05:23:56;64.90;;;28.77;;
53263;SDS011;39153;52.680;6.172;2023-02-15T05:26:22;60.15;;;28.33;;
53263;SDS011;39153;52.680;6.172;2023-02-15T05:29:08;59.30;;;27.73;;
53263;SDS011;39153;52.680;6.172;2023-02-15T05:31:34;62.33;;;28.38;;
53263;SDS011;39153;52.680;6.172;2023-02-15T05:34:00;71.47;;;29.35;;
53263;SDS011;39153;52.680;6.172;2023-02-15T05:36:26;64.60;;;29.17;;
53263;SDS011;39153;52.680;6.172;2023-02-15T05:38:53;63.75;;;28.83;;
53263;SDS011;39153;52.680;6.172;2023-02-15T05:41:18;58.45;;;28.92;;
53263;SDS011;39153;52.680;6.172;2023-02-15T05:43:44;64.07;;;28.25;;
53263;SDS011;39153;52.680;6.172;2023-02-15T05:46:10;65.90;;;28.67;;
53263;SDS011;39153;52.680;6.172;2023-02-15T05:48:36;63.88;;;27.52;;
53263;SDS011;39153;52.680;6.172;2023-02-15T05:53:29;60.38;;;27.63;;
53263;SDS011;39153;52.680;6.172;2023-02-15T05:55:57;58.63;;;27.23;;
53263;SDS011;39153;52.680;6.172;2023-02-15T05:58:27;59.95;;;28.38;;
53263;SDS011;39153;52.680;6.172;2023-02-15T06:00:55;62.42;;;27.33;;
53263;SDS011;39153;52.680;6.172;2023-02-15T06:03:21;56.00;;;26.60;;
53263;SDS011;39153;52.680;6.172;2023-02-15T06:05:48;58.50;;;27.00;;
53263;SDS011;39153;52.680;6.172;2023-02-15T06:08:14;59.72;;;28.05;;
53263;SDS011;39153;52.680;6.172;2023-02-15T06:10:40;58.60;;;27.55;;
53263;SDS011;39153;52.680;6.172;2023-02-15T06:13:06;59.95;;;27.02;;
53263;SDS011;39153;52.680;6.172;2023-02-15T06:15:32;54.42;;;25.33;;
53263;SDS011;39153;52.680;6.172;2023-02-15T06:17:58;63.28;;;27.48;;
53263;SDS011;39153;52.680;6.172;2023-02-15T06:20:23;62.75;;;28.13;;
53263;SDS011;39153;52.680;6.172;2023-02-15T06:22:49;60.08;;;27.10;;
53263;SDS011;39153;52.680;6.172;2023-02-15T06:25:15;62.97;;;28.10;;
53263;SDS011;39153;52.680;6.172;2023-02-15T06:27:41;58.97;;;26.55;;
53263;SDS011;39153;52.680;6.172;2023-02-15T06:30:07;61.40;;;27.40;;
53263;SDS011;39153;52.680;6.172;2023-02-15T06:32:34;60.78;;;28.25;;
53263;SDS011;39153;52.680;6.172;2023-02-15T06:35:00;62.63;;;27.85;;
53263;SDS011;39153;52.680;6.172;2023-02-15T06:37:26;61.72;;;27.20;;
53263;SDS011;39153;52.680;6.172;2023-02-15T06:39:52;66.30;;;27.27;;
53263;SDS011;39153;52.680;6.172;2023-02-15T06:42:17;64.65;;;28.75;;
53263;SDS011;39153;52.680;6.172;2023-02-15T06:44:44;62.17;;;27.30;;
53263;SDS011;39153;52.680;6.172;2023-02-15T06:47:10;59.60;;;26.35;;
53263;SDS011;39153;52.680;6.172;2023-02-15T06:49:36;66.45;;;28.45;;
53263;SDS011;39153;52.680;6.172;2023-02-15T06:52:02;60.97;;;28.67;;
53263;SDS011;39153;52.680;6.172;2023-02-15T06:54:29;66.03;;;27.95;;
53263;SDS011;39153;52.680;6.172;2023-02-15T06:56:55;61.38;;;27.63;;
53263;SDS011;39153;52.680;6.172;2023-02-15T06:59:20;59.15;;;26.00;;
53263;SDS011;39153;52.680;6.172;2023-02-15T07:01:46;59.95;;;26.58;;
53263;SDS011;39153;52.680;6.172;2023-02-15T07:04:12;65.63;;;27.77;;
53263;SDS011;39153;52.680;6.172;2023-02-15T07:06:38;68.55;;;28.27;;
53263;SDS011;39153;52.680;6.172;2023-02-15T07:09:03;59.97;;;26.67;;
53263;SDS011;39153;52.680;6.172;2023-02-15T07:11:29;66.65;;;28.02;;
53263;SDS011;39153;52.680;6.172;2023-02-15T07:14:14;65.55;;;26.23;;
53263;SDS011;39153;52.680;6.172;2023-02-15T07:16:40;58.13;;;25.50;;
53263;SDS011;39153;52.680;6.172;2023-02-15T07:19:06;65.03;;;27.95;;
53263;SDS011;39153;52.680;6.172;2023-02-15T07:21:32;68.07;;;27.60;;
53263;SDS011;39153;52.680;6.172;2023-02-15T07:23:59;59.72;;;26.25;;
53263;SDS011;39153;52.680;6.172;2023-02-15T07:26:25;63.75;;;26.02;;
53263;SDS011;39153;52.680;6.172;2023-02-15T07:28:51;60.65;;;25.77;;
53263;SDS011;39153;52.680;6.172;2023-02-15T07:31:17;64.03;;;26.33;;
53263;SDS011;39153;52.680;6.172;2023-02-15T07:33:42;61.85;;;26.90;;
53263;SDS011;39153;52.680;6.172;2023-02-15T07:36:08;64.50;;;26.85;;
53263;SDS011;39153;52.680;6.172;2023-02-15T07:38:37;63.80;;;27.15;;
53263;SDS011;39153;52.680;6.172;2023-02-15T07:41:05;64.57;;;27.42;;
53263;SDS011;39153;52.680;6.172;2023-02-15T07:43:37;68.45;;;27.23;;
53263;SDS011;39153;52.680;6.172;2023-02-15T07:46:06;65.72;;;27.48;;
53263;SDS011;39153;52.680;6.172;2023-02-15T07:48:34;72.78;;;29.75;;
53263;SDS011;39153;52.680;6.172;2023-02-15T07:51:01;77.32;;;30.95;;
53263;SDS011;39153;52.680;6.172;2023-02-15T07:53:28;65.07;;;29.23;;
53263;SDS011;39153;52.680;6.172;2023-02-15T07:55:58;66.00;;;29.02;;
53263;SDS011;39153;52.680;6.172;2023-02-15T07:58:24;71.68;;;29.65;;
53263;SDS011;39153;52.680;6.172;2023-02-15T08:01:09;69.97;;;28.83;;
53263;SDS011;39153;52.680;6.172;2023-02-15T08:03:35;71.38;;;28.98;;
53263;SDS011;39153;52.680;6.172;2023-02-15T08:06:01;69.85;;;30.65;;
53263;SDS011;39153;52.680;6.172;2023-02-15T08:08:27;73.28;;;28.80;;
53263;SDS011;39153;52.680;6.172;2023-02-15T08:13:45;71.07;;;28.60;;
53263;SDS011;39153;52.680;6.172;2023-02-15T08:16:31;68.00;;;29.50;;
53263;SDS011;39153;52.680;6.172;2023-02-15T08:19:02;67.63;;;28.73;;
53263;SDS011;39153;52.680;6.172;2023-02-15T08:21:30;67.68;;;28.55;;
53263;SDS011;39153;52.680;6.172;2023-02-15T08:23:57;66.43;;;28.60;;
53263;SDS011;39153;52.680;6.172;2023-02-15T08:26:23;65.15;;;28.95;;
53263;SDS011;39153;52.680;6.172;2023-02-15T08:28:50;62.15;;;28.05;;
53263;SDS011;39153;52.680;6.172;2023-02-15T08:31:17;63.17;;;27.45;;
53263;SDS011;39153;52.680;6.172;2023-02-15T08:33:44;62.78;;;28.42;;
53263;SDS011;39153;52.680;6.172;2023-02-15T08:36:14;63.90;;;28.05;;
53263;SDS011;39153;52.680;6.172;2023-02-15T08:38:42;72.95;;;30.17;;
53263;SDS011;39153;52.680;6.172;2023-02-15T08:41:27;68.28;;;29.63;;
53263;SDS011;39153;52.680;6.172;2023-02-15T08:43:58;67.40;;;29.75;;
53263;SDS011;39153;52.680;6.172;2023-02-15T08:46:27;72.95;;;31.50;;
53263;SDS011;39153;52.680;6.172;2023-02-15T08:48:54;62.20;;;28.35;;
53263;SDS011;39153;52.680;6.172;2023-02-15T08:51:24;71.47;;;30.52;;
53263;SDS011;39153;52.680;6.172;2023-02-15T08:53:53;77.72;;;32.72;;
53263;SDS011;39153;52.680;6.172;2023-02-15T08:56:21;69.90;;;29.63;;
53263;SDS011;39153;52.680;6.172;2023-02-15T08:58:53;72.53;;;30.23;;
53263;SDS011;39153;52.680;6.172;2023-02-15T09:01:20;67.55;;;31.13;;
53263;SDS011;39153;52.680;6.172;2023-02-15T09:03:51;65.05;;;30.00;;
53263;SDS011;39153;52.680;6.172;2023-02-15T09:06:21;69.93;;;31.98;;
53263;SDS011;39153;52.680;6.172;2023-02-15T09:08:48;72.32;;;32.70;;
53263;SDS011;39153;52.680;6.172;2023-02-15T09:11:18;74.22;;;34.05;;
53263;SDS011;39153;52.680;6.172;2023-02-15T09:13:52;65.03;;;30.92;;
53263;SDS011;39153;52.680;6.172;2023-02-15T09:16:20;66.43;;;32.33;;
53263;SDS011;39153;52.680;6.172;2023-02-15T09:18:48;64.55;;;31.98;;
53263;SDS011;39153;52.680;6.172;2023-02-15T09:21:15;70.70;;;33.47;;
53263;SDS011;39153;52.680;6.172;2023-02-15T09:23:43;66.30;;;31.65;;
53263;SDS011;39153;52.680;6.172;2023-02-15T09:26:11;68.88;;;32.78;;
53263;SDS011;39153;52.680;6.172;2023-02-15T09:28:46;68.55;;;32.63;;
53263;SDS011;39153;52.680;6.172;2023-02-15T09:31:19;66.07;;;31.67;;
53263;SDS011;39153;52.680;6.172;2023-02-15T09:33:47;65.55;;;32.58;;
53263;SDS011;39153;52.680;6.172;2023-02-15T09:38:47;62.85;;;31.63;;
53263;SDS011;39153;52.680;6.172;2023-02-15T09:41:25;58.63;;;31.98;;
53263;SDS011;39153;52.680;6.172;2023-02-15T09:52:48;57.22;;;30.65;;
53263;SDS011;39153;52.680;6.172;2023-02-15T10:03:13;61.80;;;31.52;;
53263;SDS011;39153;52.680;6.172;2023-02-15T10:06:18;57.53;;;30.88;;
53263;SDS011;39153;52.680;6.172;2023-02-15T10:22:46;61.30;;;31.92;;
53263;SDS011;39153;52.680;6.172;2023-02-15T10:28:23;58.58;;;32.10;;
53263;SDS011;39153;52.680;6.172;2023-02-15T10:30:55;56.25;;;31.92;;
53263;SDS011;39153;52.680;6.172;2023-02-15T10:33:39;51.33;;;31.40;;
53263;SDS011;39153;52.680;6.172;2023-02-15T10:47:20;51.58;;;31.35;;
53263;SDS011;39153;52.680;6.172;2023-02-15T10:49:52;52.58;;;31.98;;
53263;SDS011;39153;52.680;6.172;2023-02-15T10:58:15;51.13;;;31.70;;
53263;SDS011;39153;52.680;6.172;2023-02-15T11:03:52;49.30;;;31.55;;
53263;SDS011;39153;52.680;6.172;2023-02-15T11:06:41;50.10;;;31.35;;
53263;SDS011;39153;52.680;6.172;2023-02-15T11:09:13;49.47;;;31.73;;
53263;SDS011;39153;52.680;6.172;2023-02-15T11:11:44;52.38;;;31.30;;
53263;SDS011;39153;52.680;6.172;2023-02-15T11:14:14;46.58;;;29.77;;
53263;SDS011;39153;52.680;6.172;2023-02-15T11:17:05;51.88;;;31.42;;
53263;SDS011;39153;52.680;6.172;2023-02-15T11:19:56;49.47;;;30.58;;
53263;SDS011;39153;52.680;6.172;2023-02-15T11:22:30;47.72;;;30.58;;
53263;SDS011;39153;52.680;6.172;2023-02-15T11:24:58;47.50;;;30.92;;
53263;SDS011;39153;52.680;6.172;2023-02-15T11:27:29;46.67;;;30.48;;
53263;SDS011;39153;52.680;6.172;2023-02-15T11:29:59;46.72;;;28.95;;
53263;SDS011;39153;52.680;6.172;2023-02-15T11:32:37;49.50;;;31.08;;
53263;SDS011;39153;52.680;6.172;2023-02-15T11:37:48;47.47;;;29.95;;
53263;SDS011;39153;52.680;6.172;2023-02-15T11:43:00;45.92;;;29.88;;
53263;SDS011;39153;52.680;6.172;2023-02-15T11:45:46;47.03;;;29.75;;
53263;SDS011;39153;52.680;6.172;2023-02-15T11:48:13;44.70;;;28.58;;
53263;SDS011;39153;52.680;6.172;2023-02-15T11:50:40;44.58;;;28.25;;
53263;SDS011;39153;52.680;6.172;2023-02-15T11:53:18;46.53;;;29.58;;
53263;SDS011;39153;52.680;6.172;2023-02-15T11:55:53;46.42;;;29.80;;
53263;SDS011;39153;52.680;6.172;2023-02-15T11:58:28;44.38;;;29.60;;
53263;SDS011;39153;52.680;6.172;2023-02-15T12:01:02;45.30;;;28.70;;
53263;SDS011;39153;52.680;6.172;2023-02-15T12:06:25;43.92;;;29.67;;
53263;SDS011;39153;52.680;6.172;2023-02-15T12:08:56;45.55;;;30.05;;
53263;SDS011;39153;52.680;6.172;2023-02-15T12:11:30;41.25;;;29.50;;
53263;SDS011;39153;52.680;6.172;2023-02-15T12:16:52;41.78;;;27.95;;
53263;SDS011;39153;52.680;6.172;2023-02-15T12:22:02;43.53;;;28.25;;
53263;SDS011;39153;52.680;6.172;2023-02-15T12:24:31;45.55;;;30.20;;
53263;SDS011;39153;52.680;6.172;2023-02-15T12:27:05;42.85;;;28.55;;
53263;SDS011;39153;52.680;6.172;2023-02-15T12:29:40;40.85;;;30.90;;
53263;SDS011;39153;52.680;6.172;2023-02-15T12:32:21;41.83;;;28.95;;
53263;SDS011;39153;52.680;6.172;2023-02-15T12:35:16;45.05;;;30.10;;
53263;SDS011;39153;52.680;6.172;2023-02-15T12:40:35;41.00;;;28.67;;
53263;SDS011;39153;52.680;6.172;2023-02-15T12:43:02;56.42;;;32.30;;
53263;SDS011;39153;52.680;6.172;2023-02-15T12:45:34;49.15;;;29.38;;
53263;SDS011;39153;52.680;6.172;2023-02-15T12:48:08;45.80;;;28.65;;
53263;SDS011;39153;52.680;6.172;2023-02-15T12:50:37;42.92;;;30.42;;
53263;SDS011;39153;52.680;6.172;2023-02-15T12:53:30;38.50;;;27.30;;
53263;SDS011;39153;52.680;6.172;2023-02-15T12:55:58;42.22;;;27.50;;
53263;SDS011;39153;52.680;6.172;2023-02-15T12:58:43;46.28;;;30.13;;
53263;SDS011;39153;52.680;6.172;2023-02-15T13:03:57;44.08;;;30.17;;
53263;SDS011;39153;52.680;6.172;2023-02-15T13:08:53;48.00;;;29.85;;
53263;SDS011;39153;52.680;6.172;2023-02-15T13:11:29;46.22;;;30.45;;
53263;SDS011;39153;52.680;6.172;2023-02-15T13:14:03;43.65;;;30.73;;
53263;SDS011;39153;52.680;6.172;2023-02-15T13:16:43;43.50;;;28.65;;
53263;SDS011;39153;52.680;6.172;2023-02-15T13:21:51;39.00;;;26.80;;
53263;SDS011;39153;52.680;6.172;2023-02-15T13:24:27;41.45;;;28.08;;
53263;SDS011;39153;52.680;6.172;2023-02-15T13:27:07;42.90;;;29.20;;
53263;SDS011;39153;52.680;6.172;2023-02-15T13:29:39;39.35;;;31.02;;
53263;SDS011;39153;52.680;6.172;2023-02-15T13:32:11;44.42;;;29.65;;
53263;SDS011;39153;52.680;6.172;2023-02-15T13:34:56;52.55;;;31.92;;
53263;SDS011;39153;52.680;6.172;2023-02-15T13:40:02;43.85;;;29.48;;
53263;SDS011;39153;52.680;6.172;2023-02-15T13:42:54;42.33;;;29.00;;
53263;SDS011;39153;52.680;6.172;2023-02-15T13:48:26;45.35;;;27.90;;
53263;SDS011;39153;52.680;6.172;2023-02-15T13:51:39;38.30;;;28.00;;
53263;SDS011;39153;52.680;6.172;2023-02-15T13:54:15;39.05;;;27.98;;
53263;SDS011;39153;52.680;6.172;2023-02-15T13:59:52;38.63;;;28.05;;
53263;SDS011;39153;52.680;6.172;2023-02-15T14:03:18;43.78;;;29.77;;
53263;SDS011;39153;52.680;6.172;2023-02-15T14:21:43;39.95;;;26.20;;
53263;SDS011;39153;52.680;6.172;2023-02-15T14:29:41;40.30;;;26.58;;
53263;SDS011;39153;52.680;6.172;2023-02-15T14:34:58;40.55;;;26.55;;
53263;SDS011;39153;52.680;6.172;2023-02-15T14:37:33;38.58;;;26.92;;
53263;SDS011;39153;52.680;6.172;2023-02-15T14:40:06;41.80;;;27.10;;
53263;SDS011;39153;52.680;6.172;2023-02-15T14:43:01;42.67;;;27.92;;
53263;SDS011;39153;52.680;6.172;2023-02-15T14:45:55;41.25;;;26.55;;
53263;SDS011;39153;52.680;6.172;2023-02-15T14:48:28;43.30;;;27.83;;
53263;SDS011;39153;52.680;6.172;2023-02-15T14:50:58;42.20;;;29.83;;
53263;SDS011;39153;52.680;6.172;2023-02-15T14:58:56;46.00;;;26.85;;
53263;SDS011;39153;52.680;6.172;2023-02-15T15:01:26;41.08;;;27.80;;
53263;SDS011;39153;52.680;6.172;2023-02-15T15:06:29;41.83;;;27.13;;
53263;SDS011;39153;52.680;6.172;2023-02-15T15:11:44;41.55;;;26.30;;
53263;SDS011;39153;52.680;6.172;2023-02-15T15:16:57;42.90;;;27.20;;
53263;SDS011;39153;52.680;6.172;2023-02-15T15:22:17;41.80;;;27.58;;
53263;SDS011;39153;52.680;6.172;2023-02-15T15:24:52;42.55;;;27.88;;
53263;SDS011;39153;52.680;6.172;2023-02-15T15:32:46;40.75;;;26.23;;
53263;SDS011;39153;52.680;6.172;2023-02-15T15:49:36;39.47;;;25.33;;
53263;SDS011;39153;52.680;6.172;2023-02-15T15:52:17;44.17;;;27.25;;
53263;SDS011;39153;52.680;6.172;2023-02-15T15:54:46;42.63;;;27.48;;
53263;SDS011;39153;52.680;6.172;2023-02-15T15:57:28;43.63;;;26.55;;
53263;SDS011;39153;52.680;6.172;2023-02-15T15:59:58;45.05;;;27.23;;
53263;SDS011;39153;52.680;6.172;2023-02-15T16:02:24;42.83;;;27.00;;
53263;SDS011;39153;52.680;6.172;2023-02-15T16:04:51;41.28;;;26.20;;
53263;SDS011;39153;52.680;6.172;2023-02-15T16:12:34;41.83;;;25.58;;
53263;SDS011;39153;52.680;6.172;2023-02-15T16:15:13;46.83;;;27.25;;
53263;SDS011;39153;52.680;6.172;2023-02-15T16:17:43;44.28;;;25.50;;
53263;SDS011;39153;52.680;6.172;2023-02-15T16:20:15;39.90;;;25.67;;
53263;SDS011;39153;52.680;6.172;2023-02-15T16:28:33;41.67;;;25.58;;
53263;SDS011;39153;52.680;6.172;2023-02-15T16:31:06;43.85;;;25.40;;
53263;SDS011;39153;52.680;6.172;2023-02-15T16:33:38;45.88;;;26.77;;
53263;SDS011;39153;52.680;6.172;2023-02-15T16:36:05;43.55;;;26.60;;
53263;SDS011;39153;52.680;6.172;2023-02-15T16:41:10;46.85;;;26.95;;
53263;SDS011;39153;52.680;6.172;2023-02-15T16:43:46;44.60;;;26.70;;
53263;SDS011;39153;52.680;6.172;2023-02-15T16:46:23;45.20;;;27.02;;
53263;SDS011;39153;52.680;6.172;2023-02-15T16:48:52;41.35;;;25.90;;
53263;SDS011;39153;52.680;6.172;2023-02-15T16:51:22;44.75;;;27.42;;
53263;SDS011;39153;52.680;6.172;2023-02-15T16:53:51;42.60;;;26.48;;
53263;SDS011;39153;52.680;6.172;2023-02-15T16:56:25;46.85;;;27.20;;
53263;SDS011;39153;52.680;6.172;2023-02-15T16:58:55;41.25;;;25.67;;
53263;SDS011;39153;52.680;6.172;2023-02-15T17:01:24;39.55;;;26.35;;
53263;SDS011;39153;52.680;6.172;2023-02-15T17:06:39;48.38;;;27.48;;
53263;SDS011;39153;52.680;6.172;2023-02-15T17:09:05;43.63;;;27.67;;
53263;SDS011;39153;52.680;6.172;2023-02-15T17:11:42;49.83;;;29.20;;
53263;SDS011;39153;52.680;6.172;2023-02-15T17:16:35;43.70;;;26.90;;
53263;SDS011;39153;52.680;6.172;2023-02-15T17:19:17;44.50;;;27.55;;
53263;SDS011;39153;52.680;6.172;2023-02-15T17:22:04;44.38;;;27.83;;
53263;SDS011;39153;52.680;6.172;2023-02-15T17:24:35;45.75;;;28.38;;
53263;SDS011;39153;52.680;6.172;2023-02-15T17:27:12;50.88;;;29.38;;
53263;SDS011;39153;52.680;6.172;2023-02-15T17:29:51;46.83;;;27.67;;
53263;SDS011;39153;52.680;6.172;2023-02-15T17:32:21;46.80;;;27.85;;
53263;SDS011;39153;52.680;6.172;2023-02-15T17:37:29;48.72;;;29.67;;
53263;SDS011;39153;52.680;6.172;2023-02-15T17:40:35;49.55;;;30.20;;
53263;SDS011;39153;52.680;6.172;2023-02-15T17:42:55;49.03;;;28.88;;
53263;SDS011;39153;52.680;6.172;2023-02-15T17:45:21;47.53;;;28.08;;
53263;SDS011;39153;52.680;6.172;2023-02-15T17:47:50;47.17;;;27.85;;
53263;SDS011;39153;52.680;6.172;2023-02-15T17:50:20;49.28;;;29.17;;
53263;SDS011;39153;52.680;6.172;2023-02-15T17:52:48;47.13;;;28.65;;
53263;SDS011;39153;52.680;6.172;2023-02-15T17:55:16;48.08;;;28.60;;
53263;SDS011;39153;52.680;6.172;2023-02-15T17:58:04;46.00;;;28.58;;
53263;SDS011;39153;52.680;6.172;2023-02-15T18:00:42;51.75;;;29.38;;
53263;SDS011;39153;52.680;6.172;2023-02-15T18:03:44;52.45;;;29.67;;
53263;SDS011;39153;52.680;6.172;2023-02-15T18:06:34;55.50;;;32.33;;
53263;SDS011;39153;52.680;6.172;2023-02-15T18:09:20;56.65;;;32.38;;
53263;SDS011;39153;52.680;6.172;2023-02-15T18:15:04;51.35;;;30.30;;